createdAt,value
2023-06-29T00:01:36.754Z,5.90
2023-06-29T00:03:42.983Z,5.23
2023-06-29T00:05:46.764Z,5.90
2023-06-29T00:07:49.589Z,5.33
2023-06-29T00:09:53.395Z,5.63
2023-06-29T00:11:57.542Z,5.93
2023-06-29T00:14:00.357Z,6.27
2023-06-29T00:16:03.249Z,6.80
2023-06-29T00:18:06.167Z,7.30
2023-06-29T00:20:12.063Z,6.83
2023-06-29T00:22:15.154Z,7.17
2023-06-29T00:24:18.287Z,6.87
2023-06-29T00:26:21.180Z,8.00
2023-06-29T00:28:25.406Z,7.57
2023-06-29T00:30:28.291Z,7.87
2023-06-29T00:32:31.140Z,8.23
2023-06-29T00:34:33.974Z,7.10
2023-06-29T00:36:37.694Z,7.50
2023-06-29T00:38:40.527Z,7.10
2023-06-29T00:40:43.334Z,7.10
2023-06-29T00:42:46.158Z,7.17
2023-06-29T00:44:50.310Z,7.77
2023-06-29T00:46:53.966Z,8.30
2023-06-29T00:48:56.770Z,7.23
2023-06-29T00:50:59.557Z,6.93
2023-06-29T00:53:02.382Z,7.13
2023-06-29T00:55:05.720Z,7.63
2023-06-29T00:57:09.853Z,6.93
2023-06-29T00:59:12.954Z,7.23
2023-06-29T01:01:17.128Z,7.40
2023-06-29T01:03:21.594Z,7.03
2023-06-29T01:05:25.096Z,8.40
2023-06-29T01:07:30.959Z,8.47
2023-06-29T01:09:34.024Z,7.87
2023-06-29T01:11:37.093Z,7.00
2023-06-29T01:13:39.872Z,7.57
2023-06-29T01:15:42.895Z,7.60
2023-06-29T01:17:47.287Z,8.30
2023-06-29T01:19:50.758Z,7.23
2023-06-29T01:21:56.569Z,7.03
2023-06-29T01:23:59.734Z,7.70
2023-06-29T01:26:03.897Z,8.27
2023-06-29T01:28:07.824Z,8.43
2023-06-29T01:30:11.908Z,8.67
2023-06-29T01:32:15.335Z,8.70
2023-06-29T01:34:18.137Z,10.17
2023-06-29T01:36:22.737Z,9.90
2023-06-29T01:38:26.246Z,10.27
2023-06-29T01:40:30.563Z,10.13
2023-06-29T01:42:34.715Z,10.00
2023-06-29T01:44:37.506Z,11.00
2023-06-29T01:46:40.616Z,9.60
2023-06-29T01:48:43.472Z,10.20
2023-06-29T01:50:46.393Z,9.67
2023-06-29T01:52:49.206Z,10.37
2023-06-29T01:54:52.589Z,10.97
2023-06-29T01:56:55.373Z,11.00
2023-06-29T01:59:02.757Z,10.03
2023-06-29T02:01:05.634Z,10.30
2023-06-29T02:03:08.551Z,9.80
2023-06-29T02:05:11.431Z,11.30
2023-06-29T02:07:14.408Z,11.33
2023-06-29T02:09:17.317Z,10.83
2023-06-29T02:11:21.134Z,9.87
2023-06-29T02:13:23.941Z,9.30
2023-06-29T02:15:28.107Z,10.43
2023-06-29T02:17:30.972Z,11.10
2023-06-29T02:19:33.758Z,10.97
2023-06-29T02:21:36.558Z,10.93
2023-06-29T02:23:39.411Z,11.27
2023-06-29T02:25:42.549Z,10.73
2023-06-29T02:27:45.655Z,11.33
2023-06-29T02:29:48.430Z,10.67
2023-06-29T02:31:52.642Z,10.30
2023-06-29T02:33:55.644Z,10.80
2023-06-29T02:35:58.465Z,11.80
2023-06-29T02:38:01.248Z,10.70
2023-06-29T02:40:04.231Z,11.70
2023-06-29T02:42:07.253Z,12.70
2023-06-29T02:44:10.022Z,12.60
2023-06-29T02:46:12.855Z,12.80
2023-06-29T02:48:17.170Z,12.90
2023-06-29T02:50:20.131Z,12.67
2023-06-29T02:52:22.929Z,11.63
2023-06-29T02:54:25.711Z,13.20
2023-06-29T02:56:28.499Z,12.37
2023-06-29T02:58:31.299Z,11.40
2023-06-29T03:00:34.127Z,13.80
2023-06-29T03:02:37.368Z,12.57
2023-06-29T03:04:41.856Z,12.57
2023-06-29T03:06:44.669Z,12.37
2023-06-29T03:08:47.472Z,11.97
2023-06-29T03:10:50.337Z,13.00
2023-06-29T03:12:53.150Z,13.70
2023-06-29T03:14:55.971Z,12.50
2023-06-29T03:16:58.837Z,12.60
2023-06-29T03:19:01.650Z,11.40
2023-06-29T03:21:17.039Z,12.20
2023-06-29T03:23:20.540Z,13.40
2023-06-29T03:25:23.352Z,12.00
2023-06-29T03:27:26.160Z,14.37
2023-06-29T03:29:29.323Z,13.60
2023-06-29T03:31:32.185Z,13.50
2023-06-29T03:33:35.056Z,11.70
2023-06-29T03:35:37.850Z,15.40
2023-06-29T03:37:42.013Z,12.53
2023-06-29T03:39:44.811Z,12.67
2023-06-29T03:41:47.611Z,12.20
2023-06-29T03:43:50.430Z,12.60
2023-06-29T03:45:53.226Z,12.70
2023-06-29T03:47:56.136Z,13.93
2023-06-29T03:49:58.981Z,12.57
2023-06-29T03:52:01.871Z,11.17
2023-06-29T03:54:06.120Z,12.47
2023-06-29T03:56:11.340Z,12.40
2023-06-29T03:58:14.191Z,11.33
2023-06-29T04:00:17.543Z,12.40
2023-06-29T04:02:20.465Z,12.17
2023-06-29T04:04:23.330Z,12.83
2023-06-29T04:06:26.152Z,12.90
2023-06-29T04:08:29.175Z,11.93
2023-06-29T04:10:33.355Z,13.40
2023-06-29T04:12:36.228Z,12.27
2023-06-29T04:14:39.027Z,13.70
2023-06-29T04:16:41.928Z,12.43
2023-06-29T04:18:44.864Z,12.80
2023-06-29T04:20:47.701Z,12.20
2023-06-29T04:22:50.498Z,12.03
2023-06-29T04:24:53.319Z,12.63
2023-06-29T04:26:57.481Z,12.40
2023-06-29T04:29:02.198Z,12.87
2023-06-29T04:31:05.084Z,12.33
2023-06-29T04:33:11.146Z,13.80
2023-06-29T04:35:14.008Z,14.30
2023-06-29T04:37:16.770Z,13.20
2023-06-29T04:39:19.657Z,14.27
2023-06-29T04:41:32.218Z,13.53
2023-06-29T04:43:37.682Z,13.80
2023-06-29T04:45:42.232Z,13.97
2023-06-29T04:47:45.967Z,14.77
2023-06-29T04:49:52.573Z,13.03
2023-06-29T04:51:58.436Z,13.90
2023-06-29T04:54:03.234Z,14.90
2023-06-29T04:56:06.234Z,13.87
2023-06-29T04:58:09.051Z,12.90
2023-06-29T05:00:14.487Z,14.60
2023-06-29T05:02:17.299Z,12.73
2023-06-29T05:04:20.173Z,13.93
2023-06-29T05:06:22.994Z,14.77
2023-06-29T05:08:25.825Z,15.63
2023-06-29T05:10:28.657Z,14.97
2023-06-29T05:12:31.467Z,15.30
2023-06-29T05:14:34.264Z,14.77
2023-06-29T05:16:38.831Z,14.97
2023-06-29T05:18:41.690Z,14.20
2023-06-29T05:20:44.470Z,13.60
2023-06-29T05:22:47.289Z,13.90
2023-06-29T05:24:50.081Z,14.53
2023-06-29T05:26:52.889Z,15.67
2023-06-29T05:29:05.330Z,14.40
2023-06-29T05:31:08.950Z,13.90
2023-06-29T05:33:13.174Z,15.17
2023-06-29T05:35:15.989Z,15.13
2023-06-29T05:37:18.828Z,14.87
2023-06-29T05:39:21.610Z,14.80
2023-06-29T05:41:24.446Z,14.90
2023-06-29T05:43:27.251Z,13.57
2023-06-29T05:45:30.056Z,15.37
2023-06-29T05:47:32.932Z,15.10
2023-06-29T05:49:37.039Z,14.30
2023-06-29T05:51:39.820Z,16.40
2023-06-29T05:53:42.625Z,14.63
2023-06-29T05:55:45.458Z,15.80
2023-06-29T05:57:49.212Z,15.70
2023-06-29T05:59:52.441Z,15.40
2023-06-29T06:01:55.252Z,15.80
2023-06-29T06:03:58.754Z,15.70
2023-06-29T06:06:02.965Z,16.07
2023-06-29T06:08:06.241Z,14.60
2023-06-29T06:10:09.518Z,15.60
2023-06-29T06:12:12.411Z,14.50
2023-06-29T06:14:15.274Z,16.63
2023-06-29T06:16:18.142Z,16.10
2023-06-29T06:18:20.973Z,16.13
2023-06-29T06:20:23.772Z,15.97
2023-06-29T06:22:27.904Z,15.60
2023-06-29T06:24:30.720Z,15.60
2023-06-29T06:26:33.533Z,14.83
2023-06-29T06:28:36.351Z,13.47
2023-06-29T06:30:39.647Z,15.00
2023-06-29T06:32:42.741Z,15.13
2023-06-29T06:34:47.081Z,15.70
2023-06-29T06:36:49.985Z,15.10
2023-06-29T06:38:54.131Z,15.20
2023-06-29T06:40:56.920Z,15.27
2023-06-29T06:43:00.022Z,15.10
2023-06-29T06:45:04.804Z,17.37
2023-06-29T06:47:07.820Z,16.43
2023-06-29T06:49:10.634Z,16.83
2023-06-29T06:51:13.469Z,15.87
2023-06-29T06:53:16.341Z,17.40
2023-06-29T06:55:20.482Z,16.27
2023-06-29T06:57:23.683Z,16.40
2023-06-29T06:59:26.542Z,15.77
2023-06-29T07:01:29.659Z,14.90
2023-06-29T07:03:32.569Z,15.50
2023-06-29T07:05:35.712Z,16.07
2023-06-29T07:07:38.599Z,16.10
2023-06-29T07:09:41.523Z,16.70
2023-06-29T07:11:45.695Z,16.20
2023-06-29T07:13:48.494Z,15.37
2023-06-29T07:15:51.653Z,15.80
2023-06-29T07:17:54.540Z,16.37
2023-06-29T07:24:08.917Z,16.57
2023-06-29T07:26:11.710Z,16.17
2023-06-29T07:28:15.890Z,15.53
2023-06-29T07:30:18.748Z,14.50
2023-06-29T07:32:21.640Z,14.53
2023-06-29T07:34:25.296Z,15.60
2023-06-29T07:36:28.633Z,14.33
2023-06-29T07:38:31.463Z,14.50
2023-06-29T07:40:34.322Z,15.80
2023-06-29T07:42:40.100Z,14.20
2023-06-29T07:44:44.851Z,14.30
2023-06-29T07:46:47.670Z,14.53
2023-06-29T07:48:50.944Z,15.10
2023-06-29T07:50:53.850Z,16.00
2023-06-29T07:52:56.935Z,14.77
2023-06-29T07:54:59.763Z,13.23
2023-06-29T07:59:08.292Z,15.67
2023-06-29T08:01:12.497Z,14.10
2023-06-29T08:03:15.419Z,14.90
2023-06-29T08:07:24.356Z,13.40
2023-06-29T08:09:27.258Z,14.37
2023-06-29T08:11:30.076Z,13.33
2023-06-29T08:13:32.981Z,13.63
2023-06-29T08:15:35.807Z,13.33
2023-06-29T08:17:40.032Z,13.20
2023-06-29T08:19:42.911Z,13.10
2023-06-29T08:21:48.489Z,12.43
2023-06-29T08:23:51.974Z,12.10
2023-06-29T08:25:55.191Z,12.10
2023-06-29T08:27:58.011Z,11.23
2023-06-29T08:30:00.820Z,10.60
2023-06-29T08:32:03.898Z,12.90
2023-06-29T08:34:08.183Z,11.80
2023-06-29T08:36:11.125Z,12.77
2023-06-29T08:38:14.312Z,11.00
2023-06-29T08:40:18.488Z,12.57
2023-06-29T08:42:21.868Z,11.80
2023-06-29T08:44:24.683Z,10.80
2023-06-29T08:46:27.660Z,10.80
2023-06-29T08:48:30.706Z,11.37
2023-06-29T08:50:35.134Z,10.90
2023-06-29T08:52:38.069Z,11.13
2023-06-29T08:54:40.997Z,10.93
2023-06-29T08:56:43.900Z,10.60
2023-06-29T08:58:46.899Z,11.37
2023-06-29T09:00:50.289Z,9.60
2023-06-29T09:02:54.152Z,9.80
2023-06-29T09:04:57.502Z,9.10
2023-06-29T09:07:04.258Z,9.53
2023-06-29T09:09:07.395Z,9.80
2023-06-29T09:11:10.228Z,9.50
2023-06-29T09:13:13.276Z,10.23
2023-06-29T09:15:16.092Z,9.90
2023-06-29T09:17:19.746Z,9.93
2023-06-29T09:19:23.142Z,8.50
2023-06-29T09:21:26.291Z,8.60
2023-06-29T09:23:31.314Z,9.40
2023-06-29T09:25:35.751Z,8.37
2023-06-29T09:27:38.717Z,9.13
2023-06-29T09:29:41.539Z,8.23
2023-06-29T09:31:54.718Z,8.03
2023-06-29T09:33:57.602Z,8.27
2023-06-29T09:36:00.790Z,8.63
2023-06-29T09:38:04.221Z,7.70
2023-06-29T09:40:13.201Z,7.90
2023-06-29T09:42:16.098Z,8.03
2023-06-29T09:44:20.413Z,9.13
2023-06-29T09:46:23.436Z,9.37
2023-06-29T09:50:32.264Z,8.87
2023-06-29T09:52:35.184Z,9.67
2023-06-29T09:54:38.055Z,9.20
2023-06-29T09:56:42.670Z,9.57
2023-06-29T09:58:45.511Z,9.23
2023-06-29T10:00:48.869Z,9.83
2023-06-29T10:02:51.859Z,10.20
2023-06-29T10:04:55.316Z,9.57
2023-06-29T10:07:01.994Z,9.87
2023-06-29T10:09:05.923Z,9.87
2023-06-29T10:11:08.846Z,9.50
2023-06-29T10:13:13.047Z,9.90
2023-06-29T10:15:15.884Z,11.20
2023-06-29T10:17:22.341Z,11.03
2023-06-29T10:19:25.524Z,10.07
2023-06-29T10:21:28.373Z,10.93
2023-06-29T10:23:31.172Z,9.63
2023-06-29T10:25:34.661Z,10.00
2023-06-29T10:27:37.619Z,10.33
2023-06-29T10:29:45.677Z,9.93
2023-06-29T10:31:49.474Z,9.03
2023-06-29T10:33:52.484Z,10.37
2023-06-29T10:35:56.887Z,9.70
2023-06-29T10:37:59.885Z,10.87
2023-06-29T10:40:06.140Z,11.73
2023-06-29T10:42:51.286Z,11.33
2023-06-29T10:44:55.467Z,11.07
2023-06-29T10:46:58.285Z,10.80
2023-06-29T10:49:04.131Z,11.50
2023-06-29T10:51:08.160Z,12.90
2023-06-29T10:53:12.682Z,12.67
2023-06-29T10:55:15.861Z,11.83
2023-06-29T10:57:19.695Z,12.43
2023-06-29T10:59:22.656Z,12.37
2023-06-29T11:01:26.830Z,10.93
2023-06-29T11:03:29.705Z,12.57
2023-06-29T11:05:34.282Z,12.93
2023-06-29T11:07:37.160Z,12.97
2023-06-29T11:09:40.067Z,12.00
2023-06-29T11:11:43.592Z,12.33
2023-06-29T11:13:47.474Z,11.67
2023-06-29T11:15:54.256Z,12.07
2023-06-29T11:17:58.929Z,13.07
2023-06-29T11:20:01.770Z,11.60
2023-06-29T11:22:04.997Z,11.20
2023-06-29T11:24:08.075Z,13.30
2023-06-29T11:26:10.872Z,12.30
2023-06-29T11:28:16.644Z,12.47
2023-06-29T11:30:19.849Z,11.30
2023-06-29T11:32:22.735Z,11.27
2023-06-29T11:34:26.997Z,11.77
2023-06-29T11:36:30.205Z,11.60
2023-06-29T11:38:33.133Z,12.87
2023-06-29T11:40:35.973Z,11.80
2023-06-29T11:42:38.830Z,10.73
2023-06-29T11:44:41.668Z,11.90
2023-06-29T11:46:46.641Z,12.60
2023-06-29T11:48:56.665Z,11.63
2023-06-29T11:51:03.714Z,12.20
2023-06-29T11:53:07.983Z,12.30
2023-06-29T11:55:12.642Z,13.30
2023-06-29T11:57:18.516Z,11.23
2023-06-29T11:59:22.276Z,11.90
2023-06-29T12:03:33.193Z,12.15
2023-06-29T12:05:36.108Z,12.27
2023-06-29T12:07:41.245Z,12.60
2023-06-29T12:09:44.821Z,12.90
2023-06-29T12:11:51.268Z,12.40
2023-06-29T12:13:55.491Z,12.80
2023-06-29T12:18:14.411Z,12.13
2023-06-29T12:20:18.938Z,11.43
2023-06-29T12:22:22.092Z,11.10
2023-06-29T12:24:27.376Z,10.87
2023-06-29T12:26:30.200Z,12.23
2023-06-29T12:28:33.797Z,11.33
2023-06-29T12:30:37.160Z,10.70
2023-06-29T12:32:40.010Z,10.67
2023-06-29T12:34:42.892Z,12.23
2023-06-29T12:36:46.610Z,9.57
2023-06-29T12:38:50.464Z,10.80
2023-06-29T12:40:54.661Z,12.10
2023-06-29T12:42:57.577Z,10.53
2023-06-29T12:45:00.399Z,9.93
2023-06-29T12:47:03.444Z,10.10
2023-06-29T12:49:06.314Z,9.20
2023-06-29T12:51:09.120Z,10.57
2023-06-29T12:53:11.971Z,10.20
2023-06-29T12:55:15.448Z,9.80
2023-06-29T12:57:20.163Z,10.60
2023-06-29T12:59:23.026Z,10.23
2023-06-29T13:01:26.209Z,9.50
2023-06-29T13:03:29.299Z,11.00
2023-06-29T13:05:32.161Z,10.63
2023-06-29T13:07:35.906Z,10.30
2023-06-29T13:09:38.853Z,10.40
2023-06-29T13:11:43.500Z,10.40
2023-06-29T13:13:47.777Z,11.20
2023-06-29T13:15:50.843Z,10.00
2023-06-29T13:17:53.899Z,11.30
2023-06-29T13:19:56.751Z,10.03
2023-06-29T13:21:59.607Z,10.43
2023-06-29T13:24:02.873Z,10.87
2023-06-29T13:26:05.741Z,10.93
2023-06-29T13:28:08.905Z,10.50
2023-06-29T13:30:15.679Z,10.67
2023-06-29T13:32:18.536Z,10.97
2023-06-29T13:34:21.379Z,11.30
2023-06-29T13:36:24.173Z,10.50
2023-06-29T13:38:26.981Z,10.60
2023-06-29T13:40:30.274Z,12.10
2023-06-29T13:42:33.328Z,11.83
2023-06-29T13:44:36.148Z,11.97
2023-06-29T13:46:40.333Z,12.60
2023-06-29T13:48:43.212Z,12.23
2023-06-29T13:50:46.047Z,12.40
2023-06-29T13:52:48.852Z,11.77
2023-06-29T13:54:51.707Z,12.70
2023-06-29T13:56:54.601Z,13.00
2023-06-29T13:58:57.434Z,12.77
2023-06-29T14:01:01.234Z,12.87
2023-06-29T14:03:05.656Z,12.80
2023-06-29T14:05:09.124Z,14.13
2023-06-29T14:07:12.017Z,13.90
2023-06-29T14:09:14.877Z,12.87
2023-06-29T14:11:17.702Z,13.80
2023-06-29T14:13:20.605Z,14.20
2023-06-29T14:15:23.473Z,11.70
2023-06-29T14:17:26.400Z,12.90
2023-06-29T14:19:30.704Z,14.53
2023-06-29T14:21:33.668Z,12.87
2023-06-29T14:23:36.524Z,12.97
2023-06-29T14:25:39.547Z,12.27
2023-06-29T14:27:42.526Z,13.17
2023-06-29T14:29:45.327Z,14.93
2023-06-29T14:31:48.222Z,14.60
2023-06-29T14:33:51.362Z,15.97
2023-06-29T14:35:55.595Z,17.60
2023-06-29T14:38:13.362Z,18.90
2023-06-29T14:40:17.064Z,18.07
2023-06-29T14:42:19.889Z,19.00
2023-06-29T14:44:22.672Z,19.50
2023-06-29T14:46:25.571Z,17.60
2023-06-29T14:48:28.513Z,17.50
2023-06-29T14:50:31.355Z,17.00
2023-06-29T14:52:35.614Z,17.87
2023-06-29T14:54:39.249Z,17.63
2023-06-29T14:56:42.318Z,18.57
2023-06-29T14:58:45.342Z,17.83
2023-06-29T15:00:48.220Z,17.87
2023-06-29T15:02:51.079Z,18.37
2023-06-29T15:04:54.188Z,18.27
2023-06-29T15:06:57.059Z,17.73
2023-06-29T15:09:01.241Z,17.60
2023-06-29T15:11:04.077Z,17.47
2023-06-29T15:13:06.863Z,17.20
2023-06-29T15:15:11.821Z,17.33
2023-06-29T15:17:15.432Z,17.37
2023-06-29T15:19:18.247Z,17.90
2023-06-29T15:21:21.038Z,18.83
2023-06-29T15:23:23.909Z,17.40
2023-06-29T15:25:28.080Z,17.57
2023-06-29T15:27:30.881Z,17.17
2023-06-29T15:29:33.709Z,16.53
2023-06-29T15:31:36.539Z,17.57
2023-06-29T15:33:39.430Z,17.30
2023-06-29T15:35:42.249Z,17.53
2023-06-29T15:37:45.628Z,15.50
2023-06-29T15:39:48.914Z,17.70
2023-06-29T15:41:53.136Z,16.83
2023-06-29T15:44:00.952Z,17.70
2023-06-29T15:46:03.779Z,17.97
2023-06-29T15:48:06.681Z,17.83
2023-06-29T15:50:09.822Z,17.50
2023-06-29T15:52:12.658Z,18.60
2023-06-29T15:54:15.869Z,18.23
2023-06-29T15:56:19.608Z,17.23
2023-06-29T15:58:23.796Z,17.70
2023-06-29T16:00:26.592Z,16.63
2023-06-29T16:02:29.499Z,16.17
2023-06-29T16:04:32.344Z,17.07
2023-06-29T16:06:35.274Z,15.77
2023-06-29T16:08:38.211Z,15.47
2023-06-29T16:10:41.710Z,17.83
2023-06-29T16:12:44.518Z,18.10
2023-06-29T16:14:48.686Z,18.53
2023-06-29T16:16:51.661Z,17.30
2023-06-29T16:18:54.529Z,17.87
2023-06-29T16:20:57.594Z,17.67
2023-06-29T16:23:00.372Z,19.30
2023-06-29T16:25:03.192Z,18.40
2023-06-29T16:27:06.167Z,19.63
2023-06-29T16:29:09.012Z,18.83
2023-06-29T16:31:13.702Z,18.70
2023-06-29T16:33:16.714Z,18.87
2023-06-29T16:35:20.340Z,18.30
2023-06-29T16:37:23.303Z,19.00
2023-06-29T16:39:26.440Z,17.67
2023-06-29T16:41:29.266Z,16.90
2023-06-29T16:43:32.235Z,18.90
2023-06-29T16:45:35.169Z,19.23
2023-06-29T16:47:39.540Z,19.90
2023-06-29T16:49:42.500Z,19.10
2023-06-29T16:51:45.303Z,20.67
2023-06-29T16:53:48.135Z,19.53
2023-06-29T16:55:54.036Z,19.30
2023-06-29T16:57:57.656Z,18.37
2023-06-29T17:00:00.493Z,17.80
2023-06-29T17:02:03.717Z,17.93
2023-06-29T17:04:08.351Z,18.83
2023-06-29T17:06:11.232Z,18.87
2023-06-29T17:08:14.051Z,17.93
2023-06-29T17:10:16.932Z,18.20
2023-06-29T17:12:19.833Z,18.30
2023-06-29T17:14:22.684Z,19.27
2023-06-29T17:16:25.583Z,18.53
2023-06-29T17:18:28.570Z,18.13
2023-06-29T17:20:32.811Z,20.10
2023-06-29T17:22:35.680Z,19.23
2023-06-29T17:24:39.466Z,20.83
2023-06-29T17:26:42.297Z,18.70
2023-06-29T17:28:45.093Z,18.50
2023-06-29T17:30:48.021Z,18.90
2023-06-29T17:32:51.025Z,19.13
2023-06-29T17:34:54.017Z,18.03
2023-06-29T17:36:59.733Z,18.70
2023-06-29T17:39:02.547Z,20.27
2023-06-29T17:41:05.370Z,19.60
2023-06-29T17:43:08.192Z,18.33
2023-06-29T17:45:11.814Z,20.37
2023-06-29T17:47:14.631Z,20.27
2023-06-29T17:49:17.421Z,20.30
2023-06-29T17:51:20.521Z,19.17
2023-06-29T17:53:24.696Z,20.03
2023-06-29T17:55:27.526Z,19.73
2023-06-29T17:57:30.345Z,20.40
2023-06-29T17:59:33.149Z,19.10
2023-06-29T18:01:36.012Z,19.30
2023-06-29T18:03:39.615Z,19.70
2023-06-29T18:05:42.821Z,18.67
2023-06-29T18:07:45.812Z,19.00
2023-06-29T18:09:49.970Z,18.43
2023-06-29T18:11:53.473Z,19.80
2023-06-29T18:13:56.831Z,19.13
2023-06-29T18:15:59.664Z,19.50
2023-06-29T18:18:02.586Z,18.47
2023-06-29T18:20:05.984Z,18.23
2023-06-29T18:22:09.094Z,19.07
2023-06-29T18:24:11.921Z,19.00
2023-06-29T18:26:16.184Z,19.83
2023-06-29T18:28:19.002Z,19.93
2023-06-29T18:30:22.066Z,18.67
2023-06-29T18:32:24.964Z,18.77
2023-06-29T18:34:27.849Z,19.50
2023-06-29T18:36:30.704Z,19.10
2023-06-29T18:38:33.577Z,20.37
2023-06-29T18:40:36.379Z,18.83
2023-06-29T18:42:40.548Z,21.40
2023-06-29T18:44:44.012Z,21.37
2023-06-29T18:47:05.904Z,20.60
2023-06-29T18:49:09.284Z,21.13
2023-06-29T18:51:12.150Z,21.97
2023-06-29T18:53:14.948Z,19.50
2023-06-29T18:55:17.875Z,20.00
2023-06-29T18:57:20.768Z,21.20
2023-06-29T18:59:24.949Z,22.10
2023-06-29T19:01:27.851Z,20.90
2023-06-29T19:03:30.764Z,20.77
2023-06-29T19:05:33.655Z,22.37
2023-06-29T19:07:36.573Z,21.63
2023-06-29T19:09:39.547Z,23.60
2023-06-29T19:11:43.536Z,24.33
2023-06-29T19:13:46.365Z,23.97
2023-06-29T19:15:52.270Z,23.20
2023-06-29T19:17:55.266Z,24.73
2023-06-29T19:19:58.174Z,21.90
2023-06-29T19:22:00.994Z,23.33
2023-06-29T19:24:04.035Z,23.40
2023-06-29T19:26:06.864Z,22.17
2023-06-29T19:28:09.676Z,22.33
2023-06-29T19:30:13.323Z,22.87
2023-06-29T19:32:17.557Z,23.30
2023-06-29T19:34:20.503Z,22.60
2023-06-29T19:36:23.732Z,22.53
2023-06-29T19:38:26.594Z,21.83
2023-06-29T19:40:29.418Z,22.57
2023-06-29T19:42:32.211Z,23.23
2023-06-29T19:44:35.043Z,22.40
2023-06-29T19:46:38.007Z,22.37
2023-06-29T19:48:42.392Z,22.63
2023-06-29T19:50:45.688Z,20.90
2023-06-29T19:52:48.531Z,21.13
2023-06-29T19:54:51.575Z,21.70
2023-06-29T19:56:54.411Z,21.03
2023-06-29T19:58:57.264Z,20.33
2023-06-29T20:01:01.027Z,21.50
2023-06-29T20:03:05.123Z,21.37
2023-06-29T20:05:10.479Z,21.87
2023-06-29T20:07:13.430Z,19.80
2023-06-29T20:09:16.263Z,20.00
2023-06-29T20:11:19.234Z,19.80
2023-06-29T20:13:22.190Z,19.60
2023-06-29T20:15:25.813Z,19.00
2023-06-29T20:17:28.702Z,20.10
2023-06-29T20:19:32.055Z,20.23
2023-06-29T20:21:36.291Z,19.20
2023-06-29T20:23:39.356Z,19.10
2023-06-29T20:25:42.186Z,17.73
2023-06-29T20:27:45.281Z,19.67
2023-06-29T20:29:48.621Z,18.73
2023-06-29T20:31:51.489Z,19.40
2023-06-29T20:33:54.382Z,19.20
2023-06-29T20:35:57.200Z,18.80
2023-06-29T20:38:01.383Z,19.50
2023-06-29T20:40:04.842Z,17.53
2023-06-29T20:42:08.614Z,18.33
2023-06-29T20:44:15.309Z,20.00
2023-06-29T20:46:19.192Z,20.30
2023-06-29T20:48:22.283Z,21.63
2023-06-29T20:50:25.118Z,22.27
2023-06-29T20:52:27.929Z,22.57
2023-06-29T20:54:32.083Z,24.27
2023-06-29T20:56:34.924Z,23.83
2023-06-29T20:58:37.925Z,25.20
2023-06-29T21:00:40.749Z,25.60
2023-06-29T21:02:43.638Z,24.70
2023-06-29T21:04:46.716Z,26.33
2023-06-29T21:06:49.745Z,24.23
2023-06-29T21:08:52.904Z,27.57
2023-06-29T21:10:57.026Z,26.27
2023-06-29T21:13:00.083Z,27.73
2023-06-29T21:15:03.113Z,26.90
2023-06-29T21:17:06.470Z,27.67
2023-06-29T21:19:09.616Z,25.80
2023-06-29T21:21:12.894Z,26.20
2023-06-29T21:23:15.898Z,26.13
2023-06-29T21:25:19.481Z,27.70
2023-06-29T21:27:23.655Z,23.53
2023-06-29T21:29:40.961Z,29.13
2023-06-29T21:31:44.974Z,29.27
2023-06-29T21:33:48.146Z,27.07
2023-06-29T21:35:51.435Z,28.77
2023-06-29T21:37:54.683Z,29.47
2023-06-29T21:39:57.417Z,29.97
2023-06-29T21:42:00.537Z,32.33
2023-06-29T21:44:04.683Z,31.40
2023-06-29T21:46:08.081Z,31.93
2023-06-29T21:48:10.983Z,32.33
2023-06-29T21:50:13.885Z,30.40
2023-06-29T21:52:16.703Z,31.17
2023-06-29T21:54:19.537Z,30.80
2023-06-29T21:56:26.560Z,29.37
2023-06-29T21:58:30.027Z,30.97
2023-06-29T22:00:34.240Z,30.70
2023-06-29T22:02:37.094Z,30.23
2023-06-29T22:04:40.005Z,30.90
2023-06-29T22:06:42.846Z,31.77
2023-06-29T22:08:45.677Z,29.97
2023-06-29T22:10:48.616Z,30.30
2023-06-29T22:12:51.455Z,31.70
2023-06-29T22:14:54.858Z,31.20
2023-06-29T22:16:59.825Z,31.13
2023-06-29T22:19:02.718Z,31.23
2023-06-29T22:21:05.541Z,30.97
2023-06-29T22:23:08.342Z,31.27
2023-06-29T22:25:11.383Z,31.70
2023-06-29T22:27:14.214Z,31.47
2023-06-29T22:29:17.069Z,29.60
2023-06-29T22:31:19.967Z,29.90
2023-06-29T22:33:24.237Z,30.37
2023-06-29T22:35:27.058Z,31.53
2023-06-29T22:37:30.031Z,30.50
2023-06-29T22:39:32.857Z,31.43
2023-06-29T22:41:35.643Z,32.07
2023-06-29T22:43:38.713Z,33.40
2023-06-29T22:45:41.548Z,32.73
2023-06-29T22:47:44.417Z,33.60
2023-06-29T22:49:48.565Z,32.37
2023-06-29T22:51:52.572Z,33.07
2023-06-29T22:53:55.513Z,32.57
2023-06-29T22:55:58.296Z,31.27
2023-06-29T22:58:01.116Z,33.70
2023-06-29T23:00:05.865Z,30.63
2023-06-29T23:02:08.828Z,33.50
2023-06-29T23:04:11.722Z,31.80
2023-06-29T23:06:15.961Z,29.63
2023-06-29T23:08:18.859Z,31.70
2023-06-29T23:10:22.096Z,32.20
2023-06-29T23:12:27.262Z,31.87
2023-06-29T23:14:30.202Z,34.20
2023-06-29T23:16:33.515Z,31.80
2023-06-29T23:18:36.427Z,33.17
2023-06-29T23:20:39.349Z,31.77
2023-06-29T23:22:45.124Z,30.30
2023-06-29T23:24:48.093Z,30.70
2023-06-29T23:26:50.918Z,31.93
2023-06-29T23:28:53.746Z,30.90
2023-06-29T23:30:57.557Z,33.07
2023-06-29T23:33:00.415Z,32.20
2023-06-29T23:35:04.174Z,31.13
2023-06-29T23:37:08.440Z,29.40
2023-06-29T23:39:13.851Z,28.77
2023-06-29T23:41:17.232Z,31.23
2023-06-29T23:43:20.138Z,31.63
2023-06-29T23:45:23.734Z,29.13
2023-06-29T23:47:27.859Z,29.77
2023-06-29T23:49:30.700Z,29.80
2023-06-29T23:51:33.495Z,29.77
2023-06-29T23:53:36.350Z,31.90
2023-06-29T23:55:40.492Z,32.00
2023-06-29T23:57:43.331Z,30.23
2023-06-29T23:59:46.115Z,32.27
